sensor_id;sensor_type;location;lat;lon;timestamp;P1;durP1;ratioP1;P2;durP2;ratioP2
45812;SDS011;31519;45.408;10.962;2024-03-23T00:53:04;35.30;;;18.30;;
45812;SDS011;31519;45.408;10.962;2024-03-23T00:55:31;37.92;;;19.55;;
45812;SDS011;31519;45.408;10.962;2024-03-23T00:57:59;43.40;;;19.45;;
45812;SDS011;31519;45.408;10.962;2024-03-23T01:00:26;40.17;;;19.50;;
45812;SDS011;31519;45.408;10.962;2024-03-23T01:02:53;38.42;;;19.95;;
45812;SDS011;31519;45.408;10.962;2024-03-23T01:05:20;37.72;;;18.90;;
45812;SDS011;31519;45.408;10.962;2024-03-23T01:07:48;37.80;;;19.20;;
45812;SDS011;31519;45.408;10.962;2024-03-23T01:10:15;41.60;;;18.95;;
45812;SDS011;31519;45.408;10.962;2024-03-23T01:12:42;37.15;;;19.15;;
45812;SDS011;31519;45.408;10.962;2024-03-23T01:15:09;38.90;;;18.45;;
45812;SDS011;31519;45.408;10.962;2024-03-23T01:17:37;34.25;;;18.63;;
45812;SDS011;31519;45.408;10.962;2024-03-23T01:20:04;47.88;;;19.85;;
45812;SDS011;31519;45.408;10.962;2024-03-23T01:22:33;32.22;;;17.70;;
45812;SDS011;31519;45.408;10.962;2024-03-23T01:25:00;32.25;;;17.25;;
45812;SDS011;31519;45.408;10.962;2024-03-23T01:27:28;33.60;;;18.25;;
45812;SDS011;31519;45.408;10.962;2024-03-23T01:29:55;33.88;;;19.23;;
45812;SDS011;31519;45.408;10.962;2024-03-23T01:32:22;32.88;;;18.42;;
45812;SDS011;31519;45.408;10.962;2024-03-23T01:34:49;44.75;;;19.27;;
45812;SDS011;31519;45.408;10.962;2024-03-23T01:37:16;36.40;;;18.83;;
45812;SDS011;31519;45.408;10.962;2024-03-23T01:39:43;32.70;;;17.73;;
45812;SDS011;31519;45.408;10.962;2024-03-23T01:42:11;43.72;;;18.85;;
45812;SDS011;31519;45.408;10.962;2024-03-23T01:44:38;37.70;;;19.33;;
45812;SDS011;31519;45.408;10.962;2024-03-23T01:47:06;39.35;;;18.63;;
45812;SDS011;31519;45.408;10.962;2024-03-23T01:49:33;39.83;;;18.55;;
45812;SDS011;31519;45.408;10.962;2024-03-23T01:52:02;38.60;;;19.15;;
45812;SDS011;31519;45.408;10.962;2024-03-23T01:54:29;31.67;;;18.38;;
45812;SDS011;31519;45.408;10.962;2024-03-23T01:56:58;43.22;;;17.38;;
45812;SDS011;31519;45.408;10.962;2024-03-23T01:59:26;34.05;;;18.17;;
45812;SDS011;31519;45.408;10.962;2024-03-23T02:01:53;35.80;;;17.85;;
45812;SDS011;31519;45.408;10.962;2024-03-23T02:04:22;38.67;;;18.33;;
45812;SDS011;31519;45.408;10.962;2024-03-23T02:06:49;31.95;;;16.88;;
45812;SDS011;31519;45.408;10.962;2024-03-23T02:09:16;44.58;;;17.77;;
45812;SDS011;31519;45.408;10.962;2024-03-23T02:11:44;31.98;;;17.30;;
45812;SDS011;31519;45.408;10.962;2024-03-23T02:14:11;28.38;;;16.85;;
45812;SDS011;31519;45.408;10.962;2024-03-23T02:16:38;32.65;;;17.83;;
45812;SDS011;31519;45.408;10.962;2024-03-23T02:19:05;31.30;;;17.20;;
45812;SDS011;31519;45.408;10.962;2024-03-23T02:21:33;34.67;;;17.90;;
45812;SDS011;31519;45.408;10.962;2024-03-23T02:24:00;31.23;;;16.83;;
45812;SDS011;31519;45.408;10.962;2024-03-23T02:26:28;30.98;;;17.00;;
45812;SDS011;31519;45.408;10.962;2024-03-23T02:28:55;40.05;;;18.42;;
45812;SDS011;31519;45.408;10.962;2024-03-23T02:31:23;32.22;;;17.50;;
45812;SDS011;31519;45.408;10.962;2024-03-23T02:33:50;31.75;;;16.65;;
45812;SDS011;31519;45.408;10.962;2024-03-23T02:36:17;36.28;;;16.45;;
45812;SDS011;31519;45.408;10.962;2024-03-23T02:38:44;30.38;;;16.50;;
45812;SDS011;31519;45.408;10.962;2024-03-23T02:41:12;34.13;;;17.15;;
45812;SDS011;31519;45.408;10.962;2024-03-23T02:43:40;38.17;;;16.38;;
45812;SDS011;31519;45.408;10.962;2024-03-23T02:46:08;29.67;;;16.45;;
45812;SDS011;31519;45.408;10.962;2024-03-23T02:48:35;34.50;;;16.63;;
45812;SDS011;31519;45.408;10.962;2024-03-23T02:51:02;41.17;;;17.05;;
45812;SDS011;31519;45.408;10.962;2024-03-23T02:53:29;28.85;;;15.98;;
45812;SDS011;31519;45.408;10.962;2024-03-23T02:55:57;37.17;;;16.35;;
45812;SDS011;31519;45.408;10.962;2024-03-23T02:58:25;33.00;;;16.20;;
45812;SDS011;31519;45.408;10.962;2024-03-23T03:00:52;31.95;;;14.93;;
45812;SDS011;31519;45.408;10.962;2024-03-23T03:03:19;31.52;;;17.10;;
45812;SDS011;31519;45.408;10.962;2024-03-23T03:05:47;36.38;;;17.27;;
45812;SDS011;31519;45.408;10.962;2024-03-23T03:08:14;30.80;;;16.52;;
45812;SDS011;31519;45.408;10.962;2024-03-23T03:10:42;32.10;;;16.30;;
45812;SDS011;31519;45.408;10.962;2024-03-23T03:13:09;34.22;;;15.85;;
45812;SDS011;31519;45.408;10.962;2024-03-23T03:15:36;34.53;;;16.20;;
45812;SDS011;31519;45.408;10.962;2024-03-23T03:18:03;32.30;;;16.88;;
45812;SDS011;31519;45.408;10.962;2024-03-23T03:23:24;36.90;;;16.38;;
45812;SDS011;31519;45.408;10.962;2024-03-23T03:25:51;32.90;;;16.00;;
45812;SDS011;31519;45.408;10.962;2024-03-23T03:28:18;28.42;;;15.77;;
45812;SDS011;31519;45.408;10.962;2024-03-23T03:30:46;32.33;;;17.15;;
45812;SDS011;31519;45.408;10.962;2024-03-23T03:33:13;33.28;;;16.35;;
45812;SDS011;31519;45.408;10.962;2024-03-23T03:35:40;30.23;;;15.70;;
45812;SDS011;31519;45.408;10.962;2024-03-23T03:38:07;32.45;;;16.42;;
45812;SDS011;31519;45.408;10.962;2024-03-23T03:40:35;34.97;;;16.05;;
45812;SDS011;31519;45.408;10.962;2024-03-23T03:43:02;28.67;;;15.13;;
45812;SDS011;31519;45.408;10.962;2024-03-23T03:45:29;34.33;;;16.23;;
45812;SDS011;31519;45.408;10.962;2024-03-23T03:47:56;34.85;;;16.30;;
45812;SDS011;31519;45.408;10.962;2024-03-23T03:50:24;32.28;;;14.13;;
45812;SDS011;31519;45.408;10.962;2024-03-23T03:52:51;31.85;;;16.13;;
45812;SDS011;31519;45.408;10.962;2024-03-23T03:55:19;28.88;;;15.35;;
45812;SDS011;31519;45.408;10.962;2024-03-23T03:57:46;27.48;;;15.18;;
45812;SDS011;31519;45.408;10.962;2024-03-23T04:00:13;27.50;;;14.90;;
45812;SDS011;31519;45.408;10.962;2024-03-23T04:02:41;27.70;;;15.27;;
45812;SDS011;31519;45.408;10.962;2024-03-23T04:05:08;33.22;;;16.75;;
45812;SDS011;31519;45.408;10.962;2024-03-23T04:07:35;32.08;;;15.55;;
45812;SDS011;31519;45.408;10.962;2024-03-23T04:10:02;30.77;;;15.35;;
45812;SDS011;31519;45.408;10.962;2024-03-23T04:12:34;31.85;;;16.27;;
45812;SDS011;31519;45.408;10.962;2024-03-23T04:15:01;34.05;;;16.10;;
45812;SDS011;31519;45.408;10.962;2024-03-23T04:17:30;37.50;;;15.43;;
45812;SDS011;31519;45.408;10.962;2024-03-23T04:20:01;30.60;;;14.70;;
45812;SDS011;31519;45.408;10.962;2024-03-23T04:22:32;26.98;;;13.32;;
45812;SDS011;31519;45.408;10.962;2024-03-23T04:24:59;30.90;;;15.45;;
45812;SDS011;31519;45.408;10.962;2024-03-23T04:27:26;31.35;;;15.18;;
45812;SDS011;31519;45.408;10.962;2024-03-23T04:29:54;29.35;;;16.05;;
45812;SDS011;31519;45.408;10.962;2024-03-23T04:32:21;28.67;;;14.95;;
45812;SDS011;31519;45.408;10.962;2024-03-23T04:34:48;26.90;;;15.05;;
45812;SDS011;31519;45.408;10.962;2024-03-23T04:37:15;31.67;;;16.33;;
45812;SDS011;31519;45.408;10.962;2024-03-23T04:39:43;31.40;;;15.40;;
45812;SDS011;31519;45.408;10.962;2024-03-23T04:42:10;33.95;;;14.20;;
45812;SDS011;31519;45.408;10.962;2024-03-23T04:44:39;26.73;;;14.20;;
45812;SDS011;31519;45.408;10.962;2024-03-23T04:47:06;33.90;;;17.42;;
45812;SDS011;31519;45.408;10.962;2024-03-23T04:49:33;32.50;;;16.05;;
45812;SDS011;31519;45.408;10.962;2024-03-23T04:52:04;31.30;;;15.80;;
45812;SDS011;31519;45.408;10.962;2024-03-23T04:54:32;33.80;;;16.05;;
45812;SDS011;31519;45.408;10.962;2024-03-23T04:57:00;31.92;;;15.93;;
45812;SDS011;31519;45.408;10.962;2024-03-23T04:59:28;28.38;;;14.88;;
45812;SDS011;31519;45.408;10.962;2024-03-23T05:01:55;32.33;;;15.60;;
45812;SDS011;31519;45.408;10.962;2024-03-23T05:04:22;27.08;;;15.18;;
45812;SDS011;31519;45.408;10.962;2024-03-23T05:06:49;31.88;;;14.73;;
45812;SDS011;31519;45.408;10.962;2024-03-23T05:09:16;33.58;;;14.38;;
45812;SDS011;31519;45.408;10.962;2024-03-23T05:11:43;36.00;;;14.95;;
45812;SDS011;31519;45.408;10.962;2024-03-23T05:14:12;34.42;;;16.05;;
45812;SDS011;31519;45.408;10.962;2024-03-23T05:16:40;31.75;;;14.77;;
45812;SDS011;31519;45.408;10.962;2024-03-23T05:19:07;25.02;;;14.35;;
45812;SDS011;31519;45.408;10.962;2024-03-23T05:21:35;31.48;;;16.13;;
45812;SDS011;31519;45.408;10.962;2024-03-23T05:24:02;33.85;;;16.00;;
45812;SDS011;31519;45.408;10.962;2024-03-23T05:26:29;29.77;;;15.35;;
45812;SDS011;31519;45.408;10.962;2024-03-23T05:28:57;33.75;;;15.43;;
45812;SDS011;31519;45.408;10.962;2024-03-23T05:31:28;28.52;;;14.10;;
45812;SDS011;31519;45.408;10.962;2024-03-23T05:33:57;34.38;;;14.50;;
45812;SDS011;31519;45.408;10.962;2024-03-23T05:36:24;36.47;;;16.98;;
45812;SDS011;31519;45.408;10.962;2024-03-23T05:38:51;33.90;;;15.98;;
45812;SDS011;31519;45.408;10.962;2024-03-23T05:41:18;27.80;;;14.82;;
45812;SDS011;31519;45.408;10.962;2024-03-23T05:43:45;32.50;;;14.93;;
45812;SDS011;31519;45.408;10.962;2024-03-23T05:46:12;30.67;;;16.00;;
45812;SDS011;31519;45.408;10.962;2024-03-23T05:48:40;31.33;;;15.25;;
45812;SDS011;31519;45.408;10.962;2024-03-23T05:51:07;35.15;;;15.45;;
45812;SDS011;31519;45.408;10.962;2024-03-23T05:53:34;33.10;;;15.38;;
45812;SDS011;31519;45.408;10.962;2024-03-23T05:56:03;29.85;;;15.50;;
45812;SDS011;31519;45.408;10.962;2024-03-23T05:58:31;29.75;;;15.10;;
45812;SDS011;31519;45.408;10.962;2024-03-23T06:00:58;27.40;;;14.43;;
45812;SDS011;31519;45.408;10.962;2024-03-23T06:03:28;35.08;;;13.45;;
45812;SDS011;31519;45.408;10.962;2024-03-23T06:05:56;26.40;;;14.73;;
45812;SDS011;31519;45.408;10.962;2024-03-23T06:08:23;28.67;;;14.98;;
45812;SDS011;31519;45.408;10.962;2024-03-23T06:10:52;27.25;;;14.18;;
45812;SDS011;31519;45.408;10.962;2024-03-23T06:13:20;29.88;;;13.60;;
45812;SDS011;31519;45.408;10.962;2024-03-23T06:15:51;30.05;;;14.90;;
45812;SDS011;31519;45.408;10.962;2024-03-23T06:18:18;29.95;;;15.77;;
45812;SDS011;31519;45.408;10.962;2024-03-23T06:20:45;34.28;;;14.02;;
45812;SDS011;31519;45.408;10.962;2024-03-23T06:23:13;36.58;;;15.00;;
45812;SDS011;31519;45.408;10.962;2024-03-23T06:25:41;29.92;;;14.32;;
45812;SDS011;31519;45.408;10.962;2024-03-23T06:28:10;33.53;;;15.88;;
45812;SDS011;31519;45.408;10.962;2024-03-23T06:30:37;27.73;;;14.75;;
45812;SDS011;31519;45.408;10.962;2024-03-23T06:33:06;40.40;;;15.73;;
45812;SDS011;31519;45.408;10.962;2024-03-23T06:35:33;42.15;;;14.82;;
45812;SDS011;31519;45.408;10.962;2024-03-23T06:38:00;29.77;;;14.15;;
45812;SDS011;31519;45.408;10.962;2024-03-23T06:40:27;38.70;;;14.70;;
45812;SDS011;31519;45.408;10.962;2024-03-23T06:42:54;26.83;;;14.02;;
45812;SDS011;31519;45.408;10.962;2024-03-23T06:45:21;32.50;;;15.85;;
45812;SDS011;31519;45.408;10.962;2024-03-23T06:47:50;30.40;;;15.45;;
45812;SDS011;31519;45.408;10.962;2024-03-23T06:50:18;28.95;;;15.13;;
45812;SDS011;31519;45.408;10.962;2024-03-23T06:52:45;35.28;;;14.00;;
45812;SDS011;31519;45.408;10.962;2024-03-23T06:55:12;42.55;;;15.55;;
45812;SDS011;31519;45.408;10.962;2024-03-23T06:57:39;36.13;;;14.43;;
45812;SDS011;31519;45.408;10.962;2024-03-23T07:00:07;32.15;;;15.50;;
45812;SDS011;31519;45.408;10.962;2024-03-23T07:02:36;30.58;;;14.93;;
45812;SDS011;31519;45.408;10.962;2024-03-23T07:05:03;40.05;;;17.15;;
45812;SDS011;31519;45.408;10.962;2024-03-23T07:07:31;29.23;;;15.20;;
45812;SDS011;31519;45.408;10.962;2024-03-23T07:09:58;32.22;;;14.55;;
45812;SDS011;31519;45.408;10.962;2024-03-23T07:12:26;28.88;;;13.93;;
45812;SDS011;31519;45.408;10.962;2024-03-23T07:14:53;32.65;;;14.10;;
45812;SDS011;31519;45.408;10.962;2024-03-23T07:17:20;31.92;;;15.95;;
45812;SDS011;31519;45.408;10.962;2024-03-23T07:19:47;32.63;;;15.77;;
45812;SDS011;31519;45.408;10.962;2024-03-23T07:22:15;39.15;;;15.82;;
45812;SDS011;31519;45.408;10.962;2024-03-23T07:24:42;35.08;;;16.13;;
45812;SDS011;31519;45.408;10.962;2024-03-23T07:27:11;35.47;;;15.35;;
45812;SDS011;31519;45.408;10.962;2024-03-23T07:29:38;32.65;;;15.80;;
45812;SDS011;31519;45.408;10.962;2024-03-23T07:32:05;39.35;;;17.30;;
45812;SDS011;31519;45.408;10.962;2024-03-23T07:34:33;36.60;;;16.17;;
45812;SDS011;31519;45.408;10.962;2024-03-23T07:37:01;37.80;;;16.20;;
45812;SDS011;31519;45.408;10.962;2024-03-23T07:39:28;33.35;;;16.23;;
45812;SDS011;31519;45.408;10.962;2024-03-23T07:41:55;31.80;;;15.70;;
45812;SDS011;31519;45.408;10.962;2024-03-23T07:44:23;40.72;;;18.17;;
45812;SDS011;31519;45.408;10.962;2024-03-23T07:46:50;34.92;;;16.63;;
45812;SDS011;31519;45.408;10.962;2024-03-23T07:49:17;33.88;;;17.40;;
45812;SDS011;31519;45.408;10.962;2024-03-23T07:51:45;40.15;;;17.40;;
45812;SDS011;31519;45.408;10.962;2024-03-23T07:54:12;29.38;;;16.35;;
45812;SDS011;31519;45.408;10.962;2024-03-23T07:56:39;35.78;;;17.63;;
45812;SDS011;31519;45.408;10.962;2024-03-23T07:59:06;42.53;;;16.25;;
45812;SDS011;31519;45.408;10.962;2024-03-23T08:01:33;40.08;;;17.70;;
45812;SDS011;31519;45.408;10.962;2024-03-23T08:04:00;40.08;;;16.40;;
45812;SDS011;31519;45.408;10.962;2024-03-23T08:06:28;42.97;;;18.48;;
45812;SDS011;31519;45.408;10.962;2024-03-23T08:08:55;40.03;;;18.30;;
45812;SDS011;31519;45.408;10.962;2024-03-23T08:11:27;40.72;;;18.70;;
45812;SDS011;31519;45.408;10.962;2024-03-23T08:14:23;38.72;;;18.25;;
45812;SDS011;31519;45.408;10.962;2024-03-23T08:16:50;33.92;;;18.10;;
45812;SDS011;31519;45.408;10.962;2024-03-23T08:19:17;42.20;;;18.23;;
45812;SDS011;31519;45.408;10.962;2024-03-23T08:21:45;38.13;;;18.15;;
45812;SDS011;31519;45.408;10.962;2024-03-23T08:24:12;31.52;;;17.55;;
45812;SDS011;31519;45.408;10.962;2024-03-23T08:26:39;36.47;;;18.20;;
45812;SDS011;31519;45.408;10.962;2024-03-23T08:29:06;42.80;;;20.20;;
45812;SDS011;31519;45.408;10.962;2024-03-23T08:31:34;38.67;;;19.63;;
45812;SDS011;31519;45.408;10.962;2024-03-23T08:34:01;31.17;;;18.52;;
45812;SDS011;31519;45.408;10.962;2024-03-23T08:36:28;39.53;;;18.48;;
45812;SDS011;31519;45.408;10.962;2024-03-23T08:38:57;37.88;;;19.75;;
45812;SDS011;31519;45.408;10.962;2024-03-23T08:41:24;39.10;;;18.60;;
45812;SDS011;31519;45.408;10.962;2024-03-23T08:43:51;37.65;;;18.92;;
45812;SDS011;31519;45.408;10.962;2024-03-23T08:46:18;38.38;;;18.80;;
45812;SDS011;31519;45.408;10.962;2024-03-23T08:48:46;37.83;;;19.23;;
45812;SDS011;31519;45.408;10.962;2024-03-23T08:51:16;46.08;;;19.23;;
45812;SDS011;31519;45.408;10.962;2024-03-23T08:53:45;41.05;;;18.88;;
45812;SDS011;31519;45.408;10.962;2024-03-23T08:56:13;38.95;;;18.92;;
45812;SDS011;31519;45.408;10.962;2024-03-23T08:58:40;35.00;;;19.42;;
45812;SDS011;31519;45.408;10.962;2024-03-23T09:01:08;40.45;;;19.65;;
45812;SDS011;31519;45.408;10.962;2024-03-23T09:03:36;39.45;;;19.20;;
45812;SDS011;31519;45.408;10.962;2024-03-23T09:06:11;36.83;;;19.67;;
45812;SDS011;31519;45.408;10.962;2024-03-23T09:08:39;40.15;;;18.95;;
45812;SDS011;31519;45.408;10.962;2024-03-23T09:11:08;36.47;;;19.35;;
45812;SDS011;31519;45.408;10.962;2024-03-23T09:13:36;37.67;;;20.10;;
45812;SDS011;31519;45.408;10.962;2024-03-23T09:16:05;33.92;;;18.75;;
45812;SDS011;31519;45.408;10.962;2024-03-23T09:18:33;37.15;;;18.73;;
45812;SDS011;31519;45.408;10.962;2024-03-23T09:21:02;44.25;;;18.33;;
45812;SDS011;31519;45.408;10.962;2024-03-23T09:23:29;34.83;;;19.77;;
45812;SDS011;31519;45.408;10.962;2024-03-23T09:25:57;36.35;;;18.25;;
45812;SDS011;31519;45.408;10.962;2024-03-23T09:28:29;36.92;;;19.95;;
45812;SDS011;31519;45.408;10.962;2024-03-23T09:31:03;35.65;;;20.33;;
45812;SDS011;31519;45.408;10.962;2024-03-23T09:33:34;40.28;;;20.60;;
45812;SDS011;31519;45.408;10.962;2024-03-23T09:36:03;39.88;;;18.58;;
45812;SDS011;31519;45.408;10.962;2024-03-23T09:38:30;44.22;;;19.05;;
45812;SDS011;31519;45.408;10.962;2024-03-23T09:40:58;35.55;;;19.55;;
45812;SDS011;31519;45.408;10.962;2024-03-23T09:43:25;37.42;;;19.88;;
45812;SDS011;31519;45.408;10.962;2024-03-23T09:45:53;47.55;;;19.63;;
45812;SDS011;31519;45.408;10.962;2024-03-23T09:48:20;44.67;;;19.73;;
45812;SDS011;31519;45.408;10.962;2024-03-23T09:50:47;34.72;;;18.70;;
45812;SDS011;31519;45.408;10.962;2024-03-23T09:53:15;39.53;;;20.05;;
45812;SDS011;31519;45.408;10.962;2024-03-23T09:55:43;37.95;;;19.35;;
45812;SDS011;31519;45.408;10.962;2024-03-23T09:58:16;36.47;;;19.35;;
45812;SDS011;31519;45.408;10.962;2024-03-23T10:00:44;44.55;;;19.23;;
45812;SDS011;31519;45.408;10.962;2024-03-23T10:03:11;33.70;;;18.42;;
45812;SDS011;31519;45.408;10.962;2024-03-23T10:05:40;38.78;;;19.55;;
45812;SDS011;31519;45.408;10.962;2024-03-23T10:13:08;34.67;;;18.95;;
45812;SDS011;31519;45.408;10.962;2024-03-23T10:15:36;38.47;;;19.00;;
45812;SDS011;31519;45.408;10.962;2024-03-23T10:18:17;46.85;;;19.98;;
45812;SDS011;31519;45.408;10.962;2024-03-23T10:21:06;38.22;;;20.42;;
45812;SDS011;31519;45.408;10.962;2024-03-23T10:23:38;37.40;;;20.73;;
45812;SDS011;31519;45.408;10.962;2024-03-23T10:28:57;42.70;;;20.60;;
45812;SDS011;31519;45.408;10.962;2024-03-23T10:31:28;38.08;;;19.85;;
45812;SDS011;31519;45.408;10.962;2024-03-23T10:33:56;35.67;;;21.17;;
45812;SDS011;31519;45.408;10.962;2024-03-23T10:36:24;35.15;;;19.80;;
45812;SDS011;31519;45.408;10.962;2024-03-23T10:38:54;40.20;;;20.80;;
45812;SDS011;31519;45.408;10.962;2024-03-23T10:41:22;31.77;;;19.30;;
45812;SDS011;31519;45.408;10.962;2024-03-23T10:43:52;35.92;;;18.33;;
45812;SDS011;31519;45.408;10.962;2024-03-23T10:46:22;37.88;;;20.80;;
45812;SDS011;31519;45.408;10.962;2024-03-23T10:48:50;44.38;;;19.60;;
45812;SDS011;31519;45.408;10.962;2024-03-23T10:51:17;37.55;;;19.42;;
45812;SDS011;31519;45.408;10.962;2024-03-23T10:53:44;33.65;;;20.52;;
45812;SDS011;31519;45.408;10.962;2024-03-23T10:56:13;39.33;;;20.83;;
45812;SDS011;31519;45.408;10.962;2024-03-23T10:58:43;36.10;;;20.20;;
45812;SDS011;31519;45.408;10.962;2024-03-23T11:01:13;41.72;;;19.90;;
45812;SDS011;31519;45.408;10.962;2024-03-23T11:03:47;36.20;;;20.60;;
45812;SDS011;31519;45.408;10.962;2024-03-23T11:08:59;33.78;;;20.25;;
45812;SDS011;31519;45.408;10.962;2024-03-23T11:11:27;33.97;;;19.70;;
45812;SDS011;31519;45.408;10.962;2024-03-23T11:13:54;28.40;;;16.17;;
45812;SDS011;31519;45.408;10.962;2024-03-23T11:22:03;26.45;;;16.08;;
45812;SDS011;31519;45.408;10.962;2024-03-23T11:24:31;31.23;;;15.35;;
45812;SDS011;31519;45.408;10.962;2024-03-23T11:27:02;28.65;;;15.55;;
45812;SDS011;31519;45.408;10.962;2024-03-23T11:29:42;29.88;;;16.27;;
45812;SDS011;31519;45.408;10.962;2024-03-23T11:32:09;27.65;;;16.60;;
45812;SDS011;31519;45.408;10.962;2024-03-23T11:34:39;31.77;;;17.42;;
45812;SDS011;31519;45.408;10.962;2024-03-23T11:37:07;33.80;;;17.60;;
45812;SDS011;31519;45.408;10.962;2024-03-23T11:39:34;30.05;;;17.20;;
45812;SDS011;31519;45.408;10.962;2024-03-23T11:42:01;24.77;;;14.82;;
45812;SDS011;31519;45.408;10.962;2024-03-23T11:44:28;28.52;;;15.60;;
45812;SDS011;31519;45.408;10.962;2024-03-23T11:47:07;30.10;;;16.55;;
45812;SDS011;31519;45.408;10.962;2024-03-23T11:49:37;25.30;;;15.00;;
45812;SDS011;31519;45.408;10.962;2024-03-23T11:52:08;26.55;;;16.52;;
45812;SDS011;31519;45.408;10.962;2024-03-23T11:54:35;30.40;;;16.38;;
45812;SDS011;31519;45.408;10.962;2024-03-23T11:57:03;32.88;;;16.73;;
45812;SDS011;31519;45.408;10.962;2024-03-23T11:59:35;26.88;;;16.35;;
45812;SDS011;31519;45.408;10.962;2024-03-23T12:02:08;29.48;;;17.73;;
45812;SDS011;31519;45.408;10.962;2024-03-23T12:04:42;33.75;;;19.00;;
45812;SDS011;31519;45.408;10.962;2024-03-23T12:07:13;33.03;;;17.38;;
45812;SDS011;31519;45.408;10.962;2024-03-23T12:09:41;28.42;;;17.30;;
45812;SDS011;31519;45.408;10.962;2024-03-23T12:12:10;34.03;;;18.00;;
45812;SDS011;31519;45.408;10.962;2024-03-23T12:14:42;30.92;;;17.98;;
45812;SDS011;31519;45.408;10.962;2024-03-23T12:17:27;28.05;;;15.32;;
45812;SDS011;31519;45.408;10.962;2024-03-23T12:19:55;25.30;;;15.23;;
45812;SDS011;31519;45.408;10.962;2024-03-23T12:22:22;31.75;;;17.13;;
45812;SDS011;31519;45.408;10.962;2024-03-23T12:24:50;29.58;;;16.00;;
45812;SDS011;31519;45.408;10.962;2024-03-23T12:27:17;34.80;;;16.50;;
45812;SDS011;31519;45.408;10.962;2024-03-23T12:29:46;28.13;;;15.85;;
45812;SDS011;31519;45.408;10.962;2024-03-23T12:32:14;39.60;;;15.93;;
45812;SDS011;31519;45.408;10.962;2024-03-23T12:34:43;33.65;;;17.50;;
45812;SDS011;31519;45.408;10.962;2024-03-23T12:37:10;29.67;;;16.65;;
45812;SDS011;31519;45.408;10.962;2024-03-23T12:39:39;29.10;;;15.80;;
45812;SDS011;31519;45.408;10.962;2024-03-23T12:42:06;31.20;;;15.73;;
45812;SDS011;31519;45.408;10.962;2024-03-23T12:44:34;29.50;;;15.68;;
45812;SDS011;31519;45.408;10.962;2024-03-23T12:47:01;36.53;;;17.92;;
45812;SDS011;31519;45.408;10.962;2024-03-23T12:49:28;28.48;;;16.90;;
45812;SDS011;31519;45.408;10.962;2024-03-23T12:51:56;28.58;;;16.20;;
45812;SDS011;31519;45.408;10.962;2024-03-23T12:54:24;24.85;;;16.38;;
45812;SDS011;31519;45.408;10.962;2024-03-23T12:56:51;26.95;;;17.50;;
45812;SDS011;31519;45.408;10.962;2024-03-23T12:59:18;24.35;;;15.40;;
45812;SDS011;31519;45.408;10.962;2024-03-23T13:01:46;24.15;;;15.88;;
45812;SDS011;31519;45.408;10.962;2024-03-23T13:04:13;29.50;;;17.70;;
45812;SDS011;31519;45.408;10.962;2024-03-23T13:06:40;24.80;;;16.73;;
45812;SDS011;31519;45.408;10.962;2024-03-23T13:09:08;23.13;;;15.32;;
45812;SDS011;31519;45.408;10.962;2024-03-23T13:11:35;25.13;;;14.77;;
45812;SDS011;31519;45.408;10.962;2024-03-23T13:14:02;29.02;;;14.80;;
45812;SDS011;31519;45.408;10.962;2024-03-23T13:16:30;23.63;;;14.45;;
45812;SDS011;31519;45.408;10.962;2024-03-23T13:18:58;27.73;;;15.02;;
45812;SDS011;31519;45.408;10.962;2024-03-23T13:21:25;25.35;;;15.70;;
45812;SDS011;31519;45.408;10.962;2024-03-23T13:23:52;24.90;;;14.13;;
45812;SDS011;31519;45.408;10.962;2024-03-23T13:26:19;28.67;;;15.77;;
45812;SDS011;31519;45.408;10.962;2024-03-23T13:28:46;27.17;;;14.60;;
45812;SDS011;31519;45.408;10.962;2024-03-23T13:31:13;26.15;;;15.40;;
45812;SDS011;31519;45.408;10.962;2024-03-23T13:33:41;28.00;;;15.77;;
45812;SDS011;31519;45.408;10.962;2024-03-23T13:36:10;27.63;;;16.20;;
45812;SDS011;31519;45.408;10.962;2024-03-23T13:38:37;24.30;;;13.02;;
45812;SDS011;31519;45.408;10.962;2024-03-23T13:41:04;29.13;;;13.25;;
45812;SDS011;31519;45.408;10.962;2024-03-23T13:43:33;23.17;;;13.60;;
45812;SDS011;31519;45.408;10.962;2024-03-23T13:46:00;24.98;;;13.60;;
45812;SDS011;31519;45.408;10.962;2024-03-23T13:48:28;25.25;;;14.32;;
45812;SDS011;31519;45.408;10.962;2024-03-23T13:51:02;27.27;;;16.30;;
45812;SDS011;31519;45.408;10.962;2024-03-23T13:53:31;29.40;;;14.80;;
45812;SDS011;31519;45.408;10.962;2024-03-23T13:55:59;35.45;;;15.45;;
45812;SDS011;31519;45.408;10.962;2024-03-23T13:58:27;26.55;;;15.40;;
45812;SDS011;31519;45.408;10.962;2024-03-23T14:00:56;29.50;;;15.70;;
45812;SDS011;31519;45.408;10.962;2024-03-23T14:03:25;27.13;;;15.88;;
45812;SDS011;31519;45.408;10.962;2024-03-23T14:05:52;29.80;;;15.48;;
45812;SDS011;31519;45.408;10.962;2024-03-23T14:08:20;31.40;;;15.00;;
45812;SDS011;31519;45.408;10.962;2024-03-23T14:10:48;35.08;;;15.50;;
45812;SDS011;31519;45.408;10.962;2024-03-23T14:13:15;28.08;;;16.65;;
45812;SDS011;31519;45.408;10.962;2024-03-23T14:15:42;31.80;;;15.35;;
45812;SDS011;31519;45.408;10.962;2024-03-23T14:18:09;28.10;;;17.48;;
45812;SDS011;31519;45.408;10.962;2024-03-23T14:20:36;23.60;;;15.52;;
45812;SDS011;31519;45.408;10.962;2024-03-23T14:23:04;27.85;;;15.10;;
45812;SDS011;31519;45.408;10.962;2024-03-23T14:25:31;27.63;;;15.55;;
45812;SDS011;31519;45.408;10.962;2024-03-23T14:27:58;28.77;;;16.33;;
45812;SDS011;31519;45.408;10.962;2024-03-23T14:30:25;26.98;;;15.65;;
45812;SDS011;31519;45.408;10.962;2024-03-23T14:32:52;31.83;;;15.60;;
45812;SDS011;31519;45.408;10.962;2024-03-23T14:35:19;28.83;;;16.45;;
45812;SDS011;31519;45.408;10.962;2024-03-23T14:37:47;30.08;;;15.75;;
45812;SDS011;31519;45.408;10.962;2024-03-23T14:40:14;28.42;;;16.83;;
45812;SDS011;31519;45.408;10.962;2024-03-23T14:42:41;26.50;;;15.93;;
45812;SDS011;31519;45.408;10.962;2024-03-23T14:45:08;30.17;;;17.15;;
45812;SDS011;31519;45.408;10.962;2024-03-23T14:47:36;27.65;;;16.08;;
45812;SDS011;31519;45.408;10.962;2024-03-23T14:50:03;26.38;;;16.38;;
45812;SDS011;31519;45.408;10.962;2024-03-23T14:52:30;30.85;;;15.35;;
45812;SDS011;31519;45.408;10.962;2024-03-23T14:54:57;32.67;;;16.08;;
45812;SDS011;31519;45.408;10.962;2024-03-23T14:57:25;30.55;;;16.70;;
45812;SDS011;31519;45.408;10.962;2024-03-23T14:59:52;29.90;;;16.25;;
45812;SDS011;31519;45.408;10.962;2024-03-23T15:02:19;29.15;;;16.08;;
45812;SDS011;31519;45.408;10.962;2024-03-23T15:04:47;22.33;;;15.65;;
45812;SDS011;31519;45.408;10.962;2024-03-23T15:07:14;28.30;;;17.35;;
45812;SDS011;31519;45.408;10.962;2024-03-23T15:09:41;31.08;;;16.35;;
45812;SDS011;31519;45.408;10.962;2024-03-23T15:12:08;29.35;;;14.90;;
45812;SDS011;31519;45.408;10.962;2024-03-23T15:14:35;25.50;;;15.30;;
45812;SDS011;31519;45.408;10.962;2024-03-23T15:17:03;32.42;;;15.82;;
45812;SDS011;31519;45.408;10.962;2024-03-23T15:19:33;27.02;;;16.02;;
45812;SDS011;31519;45.408;10.962;2024-03-23T15:22:01;25.85;;;17.00;;
45812;SDS011;31519;45.408;10.962;2024-03-23T15:24:28;24.77;;;15.98;;